Time;durP1;ratioP1;P1;durP2;ratioP2;P2;SDS_P1;SDS_P2;PMS_P1;PMS_P2;Temp;Humidity;BMP_temperature;BMP_pressure;BME280_temperature;BME280_humidity;BME280_pressure;Samples;Min_cycle;Max_cycle;Signal;HPM_P1;HPM_P2
2022/02/17 00:00:06;;;;;;;72.47;40.83;;;;;;;2.68;100.00;98941.67;1766028;81;21018;-79
2022/02/17 00:02:36;;;;;;;79.07;38.95;;;;;;;2.66;100.00;98935.75;1743667;81;21583;-82
2022/02/17 00:05:02;;;;;;;69.75;41.88;;;;;;;2.62;100.00;98926.09;1747960;81;21511;-78
2022/02/17 00:07:30;;;;;;;75.08;40.05;;;;;;;2.60;100.00;98911.70;1711505;82;20965;-83
2022/02/17 00:09:57;;;;;;;70.90;38.40;;;;;;;2.62;100.00;98912.82;1737898;82;21937;-87
2022/02/17 00:12:23;;;;;;;68.28;38.75;;;;;;;2.62;100.00;98907.52;1710939;81;20974;-87
2022/02/17 00:14:51;;;;;;;67.05;38.00;;;;;;;2.62;100.00;98904.86;1740102;81;21125;-85
2022/02/17 00:17:18;;;;;;;72.37;39.95;;;;;;;2.67;100.00;98901.55;1710732;81;21078;-78
2022/02/17 00:19:47;;;;;;;76.42;43.58;;;;;;;2.66;100.00;98886.13;1719122;81;21008;-76
2022/02/17 00:22:13;;;;;;;64.15;40.78;;;;;;;2.70;100.00;98894.47;1747917;81;21806;-77
2022/02/17 00:24:39;;;;;;;66.87;37.98;;;;;;;2.70;100.00;98898.45;1735627;82;21583;-84
2022/02/17 00:30:19;;;;;;;83.93;41.37;;;;;;;2.78;100.00;98892.34;1788375;78;23243;-84
2022/02/17 00:32:46;;;;;;;74.00;41.45;;;;;;;2.73;100.00;98875.47;1755092;81;22161;-80
2022/02/17 00:35:13;;;;;;;82.37;45.03;;;;;;;2.71;100.00;98878.84;1757819;80;21085;-80
2022/02/17 00:37:40;;;;;;;75.25;41.53;;;;;;;2.68;100.00;98871.33;1712784;81;20957;-81
2022/02/17 00:40:09;;;;;;;68.95;43.50;;;;;;;2.69;100.00;98868.94;1761912;81;20967;-81
2022/02/17 00:42:36;;;;;;;75.40;46.10;;;;;;;2.71;100.00;98865.06;1733848;80;21046;-81
2022/02/17 00:45:05;;;;;;;69.17;40.08;;;;;;;2.72;100.00;98864.03;1754199;81;20985;-82
2022/02/17 00:47:33;;;;;;;61.88;32.75;;;;;;;2.70;100.00;98855.46;1734663;80;21726;-76
2022/02/17 00:50:02;;;;;;;69.42;44.77;;;;;;;2.65;100.00;98848.67;1752733;80;21571;-78
2022/02/17 00:52:31;;;;;;;81.67;42.73;;;;;;;2.64;100.00;98840.41;1751108;80;21429;-78
2022/02/17 00:54:57;;;;;;;67.10;42.38;;;;;;;2.64;100.00;98842.55;1755026;81;21003;-76
2022/02/17 00:57:25;;;;;;;74.35;41.08;;;;;;;2.63;100.00;98835.64;1754113;81;21059;-75
2022/02/17 00:59:53;;;;;;;72.10;41.00;;;;;;;2.63;100.00;98826.86;1719050;82;21116;-75
2022/02/17 01:02:21;;;;;;;72.03;40.28;;;;;;;2.59;100.00;98825.14;1732516;82;21603;-76
2022/02/17 01:04:49;;;;;;;55.23;30.17;;;;;;;2.52;100.00;98816.45;1692625;83;21012;-77
2022/02/17 01:07:18;;;;;;;60.78;37.45;;;;;;;2.39;100.00;98819.23;1718983;82;20975;-75
2022/02/17 01:09:46;;;;;;;70.42;40.65;;;;;;;2.33;100.00;98812.66;1718195;82;21557;-77
2022/02/17 01:12:12;;;;;;;57.30;36.45;;;;;;;2.27;100.00;98805.05;1689423;83;21114;-77
2022/02/17 01:14:43;;;;;;;70.25;40.65;;;;;;;2.27;100.00;98801.07;1695410;82;22273;-75
2022/02/17 01:17:30;;;;;;;64.35;34.55;;;;;;;2.24;100.00;98790.91;1718294;82;20993;-76
2022/02/17 01:19:59;;;;;;;61.68;39.20;;;;;;;2.24;100.00;98781.63;1718544;83;20980;-79
2022/02/17 01:22:27;;;;;;;60.88;36.23;;;;;;;2.22;100.00;98781.02;1719468;82;21039;-77
2022/02/17 01:24:55;;;;;;;59.27;39.80;;;;;;;2.21;100.00;98778.06;1742782;82;21518;-83
2022/02/17 01:27:53;;;;;;;67.15;42.65;;;;;;;2.22;100.00;98774.38;1726886;82;20997;-82
2022/02/17 01:30:20;;;;;;;57.88;35.88;;;;;;;2.28;100.00;98762.91;1674463;82;21596;-82
2022/02/17 01:32:46;;;;;;;58.87;37.20;;;;;;;2.36;100.00;98751.19;1689691;82;21593;-84
2022/02/17 01:35:13;;;;;;;64.12;41.28;;;;;;;2.38;100.00;98752.60;1732809;82;20995;-84
2022/02/17 01:37:42;;;;;;;61.02;38.30;;;;;;;2.46;100.00;98750.16;1683416;83;21085;-84
2022/02/17 01:40:11;;;;;;;55.60;38.92;;;;;;;2.50;100.00;98750.02;1712565;82;20969;-80
2022/02/17 01:42:38;;;;;;;63.48;39.10;;;;;;;2.50;100.00;98737.56;1655052;85;21577;-83
2022/02/17 01:45:07;;;;;;;72.15;46.33;;;;;;;2.49;100.00;98734.63;1677486;85;21539;-84
2022/02/17 01:47:34;;;;;;;52.13;31.42;;;;;;;2.48;100.00;98735.66;1678582;84;20971;-83
2022/02/17 01:50:01;;;;;;;67.75;42.80;;;;;;;2.48;100.00;98729.03;1688127;84;21123;-81
2022/02/17 01:52:28;;;;;;;56.30;36.35;;;;;;;2.47;100.00;98715.45;1677967;85;21497;-81
2022/02/17 01:54:55;;;;;;;55.20;36.63;;;;;;;2.51;100.00;98713.16;1688659;83;20996;-80
2022/02/17 01:57:27;;;;;;;65.22;41.65;;;;;;;2.52;100.00;98704.17;1676255;84;21228;-81
2022/02/17 01:59:56;;;;;;;64.92;40.10;;;;;;;2.55;100.00;98703.20;1667284;84;21063;-82
2022/02/17 02:02:25;;;;;;;70.40;41.80;;;;;;;2.56;100.00;98694.22;1666143;86;22155;-83
2022/02/17 02:04:53;;;;;;;65.60;39.03;;;;;;;2.54;100.00;98685.66;1677135;84;21051;-83
2022/02/17 02:07:20;;;;;;;66.00;40.85;;;;;;;2.57;100.00;98678.59;1693969;84;21710;-86
2022/02/17 02:09:46;;;;;;;69.55;41.15;;;;;;;2.63;100.00;98671.08;1695088;84;21008;-86
2022/02/17 02:12:14;;;;;;;65.47;40.55;;;;;;;2.65;100.00;98681.45;1695171;83;21078;-84
2022/02/17 02:14:52;;;;;;;78.78;47.55;;;;;;;2.67;100.00;98668.77;1678672;84;21085;-81
2022/02/17 02:17:25;;;;;;;68.57;40.20;;;;;;;2.67;100.00;98658.67;1667452;84;21130;-84
2022/02/17 02:19:57;;;;;;;;;;;;;;;2.69;100.00;98643.31;1655014;84;21078;-80
2022/02/17 02:22:21;;;;;;;73.37;45.10;;;;;;;2.72;100.00;98646.35;1694974;84;20153;-79
2022/02/17 02:24:48;;;;;;;76.40;43.52;;;;;;;2.70;100.00;98634.32;1695334;84;21036;-83
2022/02/17 02:27:15;;;;;;;75.12;43.68;;;;;;;2.70;100.00;98631.67;1674009;84;21822;-80
2022/02/17 02:29:42;;;;;;;77.95;49.10;;;;;;;2.71;100.00;98624.00;1636211;86;21074;-78
2022/02/17 02:32:10;;;;;;;75.35;44.05;;;;;;;2.72;100.00;98628.28;1635124;86;21533;-78
2022/02/17 02:34:38;;;;;;;73.90;44.77;;;;;;;2.72;100.00;98620.32;1661920;86;21039;-89
2022/02/17 02:37:06;;;;;;;79.00;47.30;;;;;;;2.75;100.00;98618.53;1675196;85;21084;-84
2022/02/17 02:39:33;;;;;;;66.77;39.30;;;;;;;2.77;100.00;98611.98;1689734;85;21106;-80
2022/02/17 02:42:01;;;;;;;88.92;50.85;;;;;;;2.76;100.00;98610.87;1675974;85;21000;-80
2022/02/17 02:44:28;;;;;;;78.05;45.20;;;;;;;2.77;100.00;98604.53;1689544;85;21004;-80
2022/02/17 02:46:57;;;;;;;78.67;48.80;;;;;;;2.78;100.00;98601.63;1679730;85;21025;-81
2022/02/17 02:49:23;;;;;;;78.70;44.00;;;;;;;2.79;100.00;98602.44;1678665;85;21015;-80
2022/02/17 02:51:49;;;;;;;70.12;45.15;;;;;;;2.81;100.00;98599.86;1687338;84;21986;-82
2022/02/17 02:54:18;;;;;;;65.08;41.95;;;;;;;2.82;100.00;98593.53;1689642;85;21627;-78
2022/02/17 02:56:44;;;;;;;67.92;40.43;;;;;;;2.87;100.00;98586.20;1688773;85;21019;-80
2022/02/17 02:59:11;;;;;;;70.62;43.73;;;;;;;2.90;100.00;98585.73;1688032;85;21064;-81
2022/02/17 03:01:37;;;;;;;75.45;42.33;;;;;;;2.93;100.00;98581.30;1662044;85;22250;-81
2022/02/17 03:04:04;;;;;;;77.03;42.40;;;;;;;2.96;100.00;98576.36;1635150;86;21158;-82
2022/02/17 03:06:31;;;;;;;69.40;42.62;;;;;;;2.98;100.00;98568.14;1669438;85;20948;-82
2022/02/17 03:08:58;;;;;;;77.25;43.45;;;;;;;3.02;100.00;98554.17;1689812;84;20983;-87
2022/02/17 03:11:27;;;;;;;72.82;42.23;;;;;;;3.05;100.00;98552.41;1688145;84;20996;-88
2022/02/17 03:13:55;;;;;;;58.70;36.85;;;;;;;3.06;100.00;98545.25;1690547;84;21016;-87
2022/02/17 03:16:23;;;;;;;68.40;41.45;;;;;;;3.11;100.00;98537.41;1690971;79;21266;-80
2022/02/17 03:18:50;;;;;;;71.53;43.08;;;;;;;3.17;100.00;98539.64;1692818;79;21136;-80
2022/02/17 03:21:17;;;;;;;68.75;43.33;;;;;;;3.19;100.00;98527.76;1657989;80;20980;-79
2022/02/17 03:23:43;;;;;;;49.50;29.23;;;;;;;3.21;100.00;98527.02;1714642;80;20925;-83
2022/02/17 03:26:14;;;;;;;65.52;41.75;;;;;;;3.27;100.00;98526.59;1712610;82;21079;-83
2022/02/17 03:28:41;;;;;;;64.30;39.58;;;;;;;3.33;100.00;98534.97;1711595;82;21159;-83
2022/02/17 03:31:09;;;;;;;58.40;36.80;;;;;;;3.38;100.00;98532.44;1739111;82;21015;-82
2022/02/17 03:33:37;;;;;;;59.85;39.50;;;;;;;3.42;100.00;98532.25;1716099;82;21617;-85
2022/02/17 03:36:05;;;;;;;56.53;36.00;;;;;;;3.48;100.00;98529.48;1710651;82;21056;-87
2022/02/17 03:38:34;;;;;;;52.05;35.50;;;;;;;3.53;100.00;98532.77;1686458;82;21072;-85
2022/02/17 03:41:01;;;;;;;51.05;35.98;;;;;;;3.57;100.00;98520.63;1739950;82;21106;-81
2022/02/17 03:43:33;;;;;;;48.77;33.13;;;;;;;3.61;100.00;98520.97;1714184;82;21001;-86
2022/02/17 03:46:00;;;;;;;57.35;35.92;;;;;;;3.68;100.00;98519.00;1716107;82;21793;-87
2022/02/17 03:48:28;;;;;;;55.10;37.58;;;;;;;3.72;100.00;98526.80;1712739;82;20965;-84
2022/02/17 03:50:56;;;;;;;54.63;37.95;;;;;;;3.78;100.00;98510.72;1734070;82;21466;-83
2022/02/17 03:53:23;;;;;;;54.90;35.65;;;;;;;3.84;100.00;98514.27;1739854;82;21593;-84
2022/02/17 03:55:50;;;;;;;60.00;40.15;;;;;;;3.83;100.00;98490.07;1740169;82;20976;-84
2022/02/17 04:01:04;;;;;;;66.65;43.58;;;;;;;3.92;100.00;98494.78;1738782;82;21012;-87
2022/02/17 04:03:33;;;;;;;52.75;36.20;;;;;;;3.95;100.00;98483.66;1739744;82;21530;-85
2022/02/17 04:06:01;;;;;;;59.42;37.48;;;;;;;4.03;100.00;98481.69;1711724;82;21127;-85
2022/02/17 04:08:28;;;;;;;53.30;38.10;;;;;;;4.06;100.00;98484.67;1711418;82;22148;-87
2022/02/17 04:10:55;;;;;;;59.88;40.25;;;;;;;4.12;100.00;98478.41;1710757;83;20944;-87
2022/02/17 04:13:23;;;;;;;56.20;37.98;;;;;;;4.18;100.00;98483.27;1731541;82;21044;-83
2022/02/17 04:15:50;;;;;;;51.45;35.38;;;;;;;4.19;100.00;98479.05;1684356;83;21030;-83
2022/02/17 04:18:24;;;;;;;56.63;37.93;;;;;;;4.21;100.00;98476.17;1701762;82;22171;-81
2022/02/17 04:21:02;;;;;;;56.02;37.78;;;;;;;4.21;100.00;98480.97;1612822;88;21034;-81
2022/02/17 04:23:31;;;;;;;57.23;36.58;;;;;;;4.25;100.00;98460.00;1709586;83;21486;-82
2022/02/17 04:26:01;;;;;;;55.17;36.30;;;;;;;4.28;100.00;98467.50;1710949;82;21012;-83
2022/02/17 04:28:35;;;;;;;47.85;33.78;;;;;;;4.28;100.00;98465.64;1678000;82;21091;-83
2022/02/17 04:31:02;;;;;;;59.53;35.88;;;;;;;4.30;100.00;98466.75;1708806;82;21851;-83
2022/02/17 04:33:30;;;;;;;52.45;38.02;;;;;;;4.29;100.00;98463.27;1707408;82;21026;-84
2022/02/17 04:35:58;;;;;;;55.40;38.75;;;;;;;4.28;100.00;98455.00;1704473;84;20941;-84
2022/02/17 04:38:27;;;;;;;64.70;39.15;;;;;;;4.28;100.00;98440.89;1706231;82;20981;-82
2022/02/17 04:43:43;;;;;;;63.28;40.60;;;;;;;4.30;100.00;98412.20;1705339;84;21279;-82
2022/02/17 04:46:11;;;;;;;59.45;39.05;;;;;;;4.25;100.00;98413.44;1705493;84;20968;-80
2022/02/17 04:48:38;;;;;;;59.45;40.35;;;;;;;4.28;100.00;98414.27;1718937;82;21513;-81
2022/02/17 04:51:06;;;;;;;61.70;40.98;;;;;;;4.27;100.00;98414.80;1734647;82;20918;-84
2022/02/17 04:53:33;;;;;;;56.80;37.88;;;;;;;4.26;100.00;98408.41;1734994;82;21076;-82
2022/02/17 04:56:00;;;;;;;44.42;28.50;;;;;;;4.22;100.00;98404.61;1724114;82;21446;-83
2022/02/17 04:58:27;;;;;;;61.05;42.08;;;;;;;4.22;100.00;98392.64;1726760;82;20968;-82
2022/02/17 05:00:53;;;;;;;59.55;35.73;;;;;;;4.27;100.00;98392.70;1713906;82;20972;-78
2022/02/17 05:03:28;;;;;;;57.65;38.23;;;;;;;4.27;100.00;98393.50;1713789;82;21013;-79
2022/02/17 05:06:02;;;;;;;64.27;44.53;;;;;;;4.25;100.00;98390.30;1712064;82;21589;-78
2022/02/17 05:08:31;;;;;;;61.50;40.23;;;;;;;4.19;100.00;98391.77;1696921;83;21150;-80
2022/02/17 05:10:59;;;;;;;55.98;38.80;;;;;;;4.20;100.00;98390.73;1705766;82;21044;-81
2022/02/17 05:13:28;;;;;;;58.90;40.12;;;;;;;4.25;100.00;98388.16;1705597;83;21494;-79
2022/02/17 05:15:55;;;;;;;64.82;39.48;;;;;;;4.27;100.00;98370.08;1722663;82;20913;-85
2022/02/17 05:18:22;;;;;;;62.17;41.60;;;;;;;4.25;100.00;98369.53;1713353;82;21055;-83
2022/02/17 05:20:51;;;;;;;60.08;38.58;;;;;;;4.25;100.00;98369.53;1710450;82;21078;-85
2022/02/17 05:23:26;;;;;;;65.87;39.00;;;;;;;4.13;100.00;98362.94;1685809;84;21028;-80
2022/02/17 05:26:12;;;;;;;61.55;41.75;;;;;;;4.13;100.00;98362.94;1668624;84;21024;-78
2022/02/17 05:28:41;;;;;;;68.62;41.77;;;;;;;4.11;100.00;98358.92;1725918;82;21562;-80
2022/02/17 05:31:29;;;;;;;59.73;38.75;;;;;;;4.11;100.00;98361.58;1703457;83;21473;-84
2022/02/17 05:33:57;;;;;;;65.30;40.75;;;;;;;4.12;100.00;98357.88;1723882;83;21172;-79
2022/02/17 05:36:37;;;;;;;63.63;42.78;;;;;;;4.12;100.00;98338.73;1727171;81;21083;-79
2022/02/17 05:39:05;;;;;;;64.72;42.73;;;;;;;4.11;100.00;98334.98;1727615;81;21572;-79
2022/02/17 05:41:50;;;;;;;68.12;42.27;;;;;;;4.09;100.00;98335.73;1728572;81;21023;-78
2022/02/17 05:44:18;;;;;;;67.90;41.48;;;;;;;4.09;100.00;98335.73;1756565;81;21053;-79
2022/02/17 05:46:44;;;;;;;70.32;42.03;;;;;;;4.08;100.00;98316.30;1756796;81;21100;-80
2022/02/17 05:49:13;;;;;;;63.17;40.80;;;;;;;4.07;100.00;98318.70;1703926;81;21500;-80
2022/02/17 05:51:42;;;;;;;71.75;44.53;;;;;;;4.07;100.00;98304.59;1728544;81;21022;-78
2022/02/17 05:54:08;;;;;;;59.63;40.23;;;;;;;4.06;100.00;98310.43;1756712;81;21075;-85
2022/02/17 05:56:36;;;;;;;73.37;40.95;;;;;;;4.10;100.00;98301.44;1754246;81;21023;-87
2022/02/17 05:59:03;;;;;;;77.20;44.35;;;;;;;4.11;100.00;98303.86;1755943;81;20978;-85
2022/02/17 06:01:29;;;;;;;75.70;43.17;;;;;;;4.09;100.00;98281.20;1729174;81;21059;-86
2022/02/17 06:03:55;;;;;;;69.45;40.88;;;;;;;4.07;100.00;98290.77;1756873;81;21029;-86
2022/02/17 06:06:22;;;;;;;68.62;36.73;;;;;;;4.07;100.00;98283.31;1753051;81;21000;-87
2022/02/17 06:08:48;;;;;;;67.60;41.20;;;;;;;4.02;100.00;98293.34;1757178;81;21051;-87
2022/02/17 06:11:15;;;;;;;60.98;38.90;;;;;;;4.06;100.00;98290.48;1756952;81;21155;-86
2022/02/17 06:13:41;;;;;;;68.17;42.62;;;;;;;4.06;100.00;98290.48;1756855;81;21047;-85
2022/02/17 06:16:09;;;;;;;71.02;43.42;;;;;;;4.06;100.00;98283.02;1708516;81;21560;-84
2022/02/17 06:18:35;;;;;;;66.60;41.18;;;;;;;4.07;100.00;98293.95;1728328;81;21015;-87
2022/02/17 06:21:02;;;;;;;61.92;39.60;;;;;;;4.11;100.00;98285.77;1726769;82;21086;-84
2022/02/17 06:23:28;;;;;;;63.23;42.73;;;;;;;4.16;100.00;98300.47;1727033;82;21001;-88
2022/02/17 06:25:54;;;;;;;62.78;39.48;;;;;;;4.18;100.00;98293.04;1700075;83;21004;-91
2022/02/17 06:28:21;;;;;;;73.22;42.45;;;;;;;4.21;100.00;98296.56;1676829;83;21003;-88
2022/02/17 06:30:47;;;;;;;64.82;43.80;;;;;;;4.26;100.00;98288.14;1737272;81;21514;-87
2022/02/17 06:33:13;;;;;;;59.00;36.40;;;;;;;4.25;100.00;98267.08;1723814;82;21114;-87
2022/02/17 06:35:40;;;;;;;70.67;42.10;;;;;;;4.25;100.00;98267.08;1686738;82;21927;-88
2022/02/17 06:38:06;;;;;;;64.35;43.38;;;;;;;4.32;100.00;98253.88;1732520;82;20879;-88
2022/02/17 06:40:35;;;;;;;66.05;37.93;;;;;;;4.32;100.00;98253.88;1735207;81;20997;-82
2022/02/17 06:43:10;;;;;;;75.45;45.12;;;;;;;4.32;100.00;98251.22;1713509;82;20917;-81
2022/02/17 06:45:39;;;;;;;73.55;48.38;;;;;;;4.31;100.00;98245.64;1705394;82;21068;-78
2022/02/17 06:48:06;;;;;;;70.42;44.83;;;;;;;4.31;100.00;98245.64;1706302;82;21133;-78
2022/02/17 06:50:33;;;;;;;73.22;41.63;;;;;;;4.26;100.00;98224.28;1685083;84;20977;-80
2022/02/17 06:53:02;;;;;;;64.67;40.45;;;;;;;4.26;100.00;98224.28;1690942;82;21008;-81
2022/02/17 06:55:28;;;;;;;78.33;45.12;;;;;;;4.24;100.00;98225.55;1734386;82;21028;-85
2022/02/17 06:57:56;;;;;;;67.32;41.65;;;;;;;4.27;100.00;98227.72;1668743;84;21099;-84
2022/02/17 07:00:22;;;;;;;66.62;43.92;;;;;;;4.29;100.00;98218.45;1705732;84;21708;-84
2022/02/17 07:02:52;;;;;;;65.67;42.93;;;;;;;4.38;100.00;98224.16;1711940;82;20992;-84
2022/02/17 07:05:20;;;;;;;69.75;44.42;;;;;;;4.47;100.00;98206.70;1703116;83;20933;-80
2022/02/17 07:07:47;;;;;;;58.78;36.38;;;;;;;4.49;100.00;98213.93;1705615;84;21056;-84
2022/02/17 07:10:14;;;;;;;69.72;44.53;;;;;;;4.51;99.61;98215.02;1708263;82;21021;-85
2022/02/17 07:12:43;;;;;;;69.07;40.00;;;;;;;4.51;99.61;98215.02;1734094;82;21199;-86
2022/02/17 07:15:11;;;;;;;67.40;43.83;;;;;;;4.58;98.51;98196.47;1705638;82;21656;-86
2022/02/17 07:17:37;;;;;;;66.90;41.65;;;;;;;4.57;98.44;98195.37;1707709;82;21037;-86
2022/02/17 07:20:06;;;;;;;65.90;43.55;;;;;;;4.55;98.00;98188.19;1705916;83;20976;-87
2022/02/17 07:22:33;;;;;;;71.50;41.10;;;;;;;4.55;98.00;98188.19;1706152;82;21490;-84
2022/02/17 07:24:59;;;;;;;68.75;43.55;;;;;;;4.63;98.38;98165.11;1695001;82;21029;-87
2022/02/17 07:27:26;;;;;;;71.25;40.35;;;;;;;4.64;97.68;98166.73;1714397;82;21021;-89
2022/02/17 07:29:53;;;;;;;58.00;34.53;;;;;;;4.59;97.31;98168.80;1735529;82;20993;-89
2022/02/17 07:32:22;;;;;;;74.42;46.02;;;;;;;4.51;97.40;98153.25;1728011;81;20987;-81
2022/02/17 07:34:52;;;;;;;63.05;42.50;;;;;;;4.53;97.50;98134.37;1726881;81;21011;-87
2022/02/17 07:37:18;;;;;;;70.25;42.73;;;;;;;4.53;97.50;98134.37;1727606;81;21573;-88
2022/02/17 07:39:47;;;;;;;61.15;41.73;;;;;;;4.55;97.74;98126.95;1726562;83;21007;-91
2022/02/17 07:42:15;;;;;;;58.98;39.58;;;;;;;4.57;97.73;98118.17;1727289;83;21160;-89
2022/02/17 07:44:43;;;;;;;63.15;41.02;;;;;;;4.58;97.50;98117.13;1739625;81;21064;-87
2022/02/17 07:47:09;;;;;;;64.70;39.78;;;;;;;4.53;97.33;98097.91;1756968;81;20988;-89
2022/02/17 07:49:37;;;;;;;57.58;32.83;;;;;;;4.55;97.33;98085.17;1756995;81;21826;-84
2022/02/17 07:52:04;;;;;;;64.50;43.08;;;;;;;4.55;97.33;98085.17;1755952;81;21165;-91
2022/02/17 07:54:31;;;;;;;68.07;41.90;;;;;;;4.58;97.37;98077.20;1730078;81;21038;-86
2022/02/17 07:57:00;;;;;;;64.53;39.45;;;;;;;4.61;97.18;98074.02;1739058;81;20988;-84
2022/02/17 07:59:26;;;;;;;62.83;37.70;;;;;;;4.64;96.89;98080.20;1728524;81;21241;-83
2022/02/17 08:01:53;;;;;;;54.67;34.53;;;;;;;4.65;96.67;98076.48;1756816;81;21102;-89
2022/02/17 08:04:20;;;;;;;56.53;36.28;;;;;;;4.69;96.69;98082.39;1715206;82;21122;-90
2022/02/17 08:06:47;;;;;;;67.03;42.08;;;;;;;4.74;96.57;98094.42;1726674;81;21579;-92
2022/02/17 08:09:13;;;;;;;68.92;39.90;;;;;;;4.78;96.39;98076.08;1726544;83;21572;-88
2022/02/17 08:11:42;;;;;;;63.10;38.30;;;;;;;4.85;96.01;98063.34;1695615;81;21095;-89
2022/02/17 08:14:08;;;;;;;58.00;37.13;;;;;;;4.89;95.58;98063.66;1755808;81;21054;-90
2022/02/17 08:16:37;;;;;;;61.48;38.25;;;;;;;4.93;95.22;98053.58;1756811;81;22203;-90
2022/02/17 08:19:07;;;;;;;63.65;38.15;;;;;;;5.00;94.72;98053.35;1742968;81;21045;-88
2022/02/17 08:21:36;;;;;;;60.48;37.35;;;;;;;5.04;94.66;98046.45;1726808;82;21509;-86
2022/02/17 08:24:07;;;;;;;57.83;35.83;;;;;;;5.10;94.29;98051.58;1717541;81;21085;-89
2022/02/17 08:26:37;;;;;;;59.20;38.50;;;;;;;5.17;94.13;98048.19;1729870;81;20944;-87
2022/02/17 08:29:04;;;;;;;57.73;36.58;;;;;;;5.23;93.43;98043.67;1729515;81;20948;-89
2022/02/17 08:31:31;;;;;;;53.80;35.65;;;;;;;5.33;93.53;98048.27;1752899;81;20992;-86
2022/02/17 08:34:03;;;;;;;55.75;38.58;;;;;;;5.45;92.97;98048.38;1731348;81;21083;-87
2022/02/17 08:36:33;;;;;;;60.48;40.10;;;;;;;5.56;92.64;98032.69;1719079;83;21036;-79
2022/02/17 08:39:01;;;;;;;56.25;32.10;;;;;;;5.66;91.93;98019.42;1692654;83;21157;-80
2022/02/17 08:41:31;;;;;;;63.17;38.95;;;;;;;5.73;90.33;98006.39;1719139;83;20976;-87
2022/02/17 08:43:57;;;;;;;56.02;33.42;;;;;;;5.77;89.62;98014.14;1721996;82;20905;-90
2022/02/17 08:46:23;;;;;;;49.40;30.88;;;;;;;5.83;88.99;97998.44;1719265;83;21517;-88
2022/02/17 08:48:50;;;;;;;59.03;38.88;;;;;;;5.87;87.95;97984.34;1747412;82;21055;-84
2022/02/17 08:51:17;;;;;;;61.33;35.23;;;;;;;5.91;87.81;97972.09;1749067;82;21528;-83
2022/02/17 08:53:47;;;;;;;60.23;38.98;;;;;;;5.98;87.68;97974.52;1735994;81;21170;-84
2022/02/17 08:56:15;;;;;;;58.80;37.73;;;;;;;6.04;86.85;97972.14;1713815;82;21091;-83
2022/02/17 08:58:42;;;;;;;59.25;37.45;;;;;;;6.09;86.82;97965.48;1719513;82;21036;-80
2022/02/17 09:01:10;;;;;;;59.33;36.38;;;;;;;6.12;86.65;97967.09;1740075;81;20973;-85
2022/02/17 09:03:37;;;;;;;60.45;38.10;;;;;;;6.18;86.27;97959.91;1719442;83;21524;-89
2022/02/17 09:06:03;;;;;;;56.63;37.38;;;;;;;6.25;86.28;97967.11;1719377;83;20979;-89
2022/02/17 09:08:30;;;;;;;57.90;38.17;;;;;;;6.36;86.08;97970.61;1692737;83;21559;-89
2022/02/17 09:10:59;;;;;;;57.45;38.40;;;;;;;6.45;85.48;97977.03;1727267;80;21505;-88
2022/02/17 09:13:29;;;;;;;51.92;35.40;;;;;;;6.52;84.92;97976.25;1713400;82;21091;-86
2022/02/17 09:15:56;;;;;;;53.08;35.30;;;;;;;6.55;84.57;97964.49;1719258;83;21111;-87
2022/02/17 09:18:22;;;;;;;54.30;36.60;;;;;;;6.65;84.27;97962.89;1721440;82;20988;-86
2022/02/17 09:20:49;;;;;;;61.85;39.80;;;;;;;6.65;83.39;97933.52;1743622;81;20968;-74
2022/02/17 09:23:17;;;;;;;66.00;38.88;;;;;;;6.67;83.18;97930.02;1738666;82;21576;-76
2022/02/17 09:25:44;;;;;;;52.58;37.40;;;;;;;6.67;82.97;97932.16;1743212;82;21052;-76
2022/02/17 09:28:10;;;;;;;53.08;36.42;;;;;;;6.66;82.63;97920.44;1743913;82;21101;-77
2022/02/17 09:30:37;;;;;;;65.57;37.30;;;;;;;6.69;82.23;97918.55;1718912;82;20999;-75
2022/02/17 09:33:05;;;;;;;52.40;36.40;;;;;;;6.65;82.01;97911.62;1719055;83;21512;-79
2022/02/17 09:35:31;;;;;;;59.67;37.23;;;;;;;6.67;82.32;97905.45;1706073;82;21032;-76
2022/02/17 09:37:59;;;;;;;58.60;41.35;;;;;;;6.73;82.04;97899.58;1730806;82;21585;-77
2022/02/17 09:40:25;;;;;;;52.70;33.53;;;;;;;6.74;82.14;97882.48;1743426;81;21501;-81
2022/02/17 09:42:52;;;;;;;57.55;34.27;;;;;;;6.74;82.02;97869.94;1748068;82;21049;-79
2022/02/17 09:45:20;;;;;;;58.45;38.73;;;;;;;6.74;81.87;97860.59;1745324;82;21439;-81
2022/02/17 09:47:46;;;;;;;49.80;34.30;;;;;;;6.78;81.88;97844.28;1736474;81;21033;-77
2022/02/17 09:50:14;;;;;;;54.00;33.18;;;;;;;6.75;81.85;97839.48;1742314;81;21017;-76
2022/02/17 09:52:42;;;;;;;51.33;34.50;;;;;;;6.76;81.65;97833.61;1711228;82;21375;-78
2022/02/17 09:55:12;;;;;;;51.75;34.58;;;;;;;6.81;81.63;97828.27;1738370;82;20893;-81
2022/02/17 09:57:41;;;;;;;53.50;35.23;;;;;;;6.82;81.12;97829.84;1719955;82;20972;-82
2022/02/17 10:00:12;;;;;;;46.83;32.45;;;;;;;6.88;80.87;97836.77;1730940;82;20997;-77
2022/02/17 10:02:38;;;;;;;54.27;33.42;;;;;;;6.87;80.41;97827.95;1701506;83;21553;-78
2022/02/17 10:05:06;;;;;;;46.50;29.45;;;;;;;6.94;80.71;97823.14;1726538;82;21032;-77
2022/02/17 10:07:35;;;;;;;54.13;32.93;;;;;;;6.97;80.06;97812.43;1717753;82;20949;-74
2022/02/17 10:10:08;;;;;;;54.00;36.35;;;;;;;7.01;80.04;97800.13;1730088;82;21521;-82
2022/02/17 10:12:59;;;;;;;47.38;33.25;;;;;;;7.06;79.84;97781.92;1749369;82;21016;-81
2022/02/17 10:15:51;;;;;;;49.35;34.43;;;;;;;7.14;79.60;97772.02;1740529;82;21118;-84
2022/02/17 10:18:27;;;;;;;53.98;34.63;;;;;;;7.23;79.03;97761.82;1741438;81;21391;-84
2022/02/17 10:21:09;;;;;;;48.80;32.45;;;;;;;7.31;78.73;97756.42;1724261;82;21490;-83
2022/02/17 10:23:44;;;;;;;53.02;33.53;;;;;;;7.35;78.45;97740.89;1746732;81;21033;-74
2022/02/17 10:26:18;;;;;;;49.88;32.73;;;;;;;7.37;78.44;97739.28;1722581;82;21059;-77
2022/02/17 10:28:59;;;;;;;51.08;33.90;;;;;;;7.44;78.57;97745.10;1725831;82;20953;-87
2022/02/17 10:31:35;;;;;;;46.55;33.98;;;;;;;7.49;78.35;97746.41;1739430;81;20913;-82
2022/02/17 10:34:02;;;;;;;44.75;30.08;;;;;;;7.55;77.91;97745.31;1730163;82;20956;-86
2022/02/17 10:36:44;;;;;;;41.58;26.57;;;;;;;7.64;77.71;97730.27;1719649;83;21107;-85
2022/02/17 10:39:19;;;;;;;39.83;28.60;;;;;;;7.71;76.95;97729.42;1732671;82;20961;-82
2022/02/17 10:41:57;;;;;;;45.78;31.10;;;;;;;7.77;76.56;97713.56;1736230;81;21592;-81
2022/02/17 10:47:26;;;;;;;39.65;28.65;;;;;;;7.86;75.71;97702.52;1739193;82;21554;-80
2022/02/17 10:49:54;;;;;;;;;;;;;;;7.94;75.68;97682.94;1744751;82;21016;-83
2022/02/17 10:52:36;;;;;;;41.15;27.48;;;;;;;8.01;75.17;97694.90;1719386;82;20120;-82
2022/02/17 10:55:20;;;;;;;33.15;25.68;;;;;;;8.04;75.04;97689.00;1723606;80;21090;-76
2022/02/17 10:57:47;;;;;;;34.33;25.32;;;;;;;8.12;75.16;97682.22;1710592;83;21828;-83
2022/02/17 11:00:19;;;;;;;47.78;29.70;;;;;;;8.18;74.80;97675.73;1733171;82;21494;-79
2022/02/17 11:02:50;;;;;;;37.03;28.05;;;;;;;8.20;74.71;97670.91;1706784;82;21012;-78
2022/02/17 11:05:18;;;;;;;37.33;26.55;;;;;;;8.25;73.98;97662.80;1725056;82;21063;-74
2022/02/17 11:07:46;;;;;;;36.15;27.22;;;;;;;8.33;74.17;97678.30;1720222;82;21561;-75
2022/02/17 11:10:13;;;;;;;36.42;28.42;;;;;;;8.38;73.84;97653.34;1729245;82;21137;-86
2022/02/17 11:12:41;;;;;;;44.08;25.17;;;;;;;8.41;73.63;97662.93;1707433;82;21036;-85
2022/02/17 11:15:09;;;;;;;45.08;26.57;;;;;;;8.43;73.21;97650.60;1730891;82;21493;-86
2022/02/17 11:17:38;;;;;;;36.85;23.95;;;;;;;8.43;72.84;97649.27;1726340;82;20964;-83
2022/02/17 11:20:17;;;;;;;40.38;29.15;;;;;;;8.45;73.07;97638.50;1710406;83;21107;-75
2022/02/17 11:22:43;;;;;;;33.90;25.92;;;;;;;8.48;73.22;97635.81;1699388;82;21727;-77
2022/02/17 11:25:13;;;;;;;32.70;25.75;;;;;;;8.48;73.28;97635.27;1738432;82;21067;-75
2022/02/17 11:28:09;;;;;;;36.17;25.37;;;;;;;8.47;73.55;97629.66;1726768;82;20977;-74
2022/02/17 11:30:42;;;;;;;28.15;22.15;;;;;;;8.49;73.42;97615.41;1742794;82;20992;-75
2022/02/17 11:33:24;;;;;;;33.73;23.20;;;;;;;8.50;73.73;97618.89;1733027;81;21036;-74
2022/02/17 11:35:59;;;;;;;34.03;26.10;;;;;;;8.52;73.75;97608.70;1745666;82;21808;-77
2022/02/17 11:38:33;;;;;;;29.70;23.20;;;;;;;8.49;73.80;97607.37;1748734;81;21000;-76
2022/02/17 11:41:17;;;;;;;38.60;24.40;;;;;;;8.47;74.12;97604.20;1724200;82;20976;-77